sensor_id;sensor_type;location;lat;lon;timestamp;P1;durP1;ratioP1;P2;durP2;ratioP2
9449;SDS011;4763;48.370;10.874;2023-03-01T00:00:22;15.70;;;10.10;;
9449;SDS011;4763;48.370;10.874;2023-03-01T00:03:09;19.83;;;12.23;;
9449;SDS011;4763;48.370;10.874;2023-03-01T00:05:56;19.47;;;11.97;;
9449;SDS011;4763;48.370;10.874;2023-03-01T00:08:44;19.40;;;11.30;;
9449;SDS011;4763;48.370;10.874;2023-03-01T00:11:32;21.90;;;11.77;;
9449;SDS011;4763;48.370;10.874;2023-03-01T00:14:20;21.23;;;12.53;;
9449;SDS011;4763;48.370;10.874;2023-03-01T00:17:09;23.47;;;13.03;;
9449;SDS011;4763;48.370;10.874;2023-03-01T00:19:56;22.50;;;11.47;;
9449;SDS011;4763;48.370;10.874;2023-03-01T00:22:43;20.43;;;12.20;;
9449;SDS011;4763;48.370;10.874;2023-03-01T00:25:30;20.57;;;11.73;;
9449;SDS011;4763;48.370;10.874;2023-03-01T00:28:18;21.23;;;11.53;;
9449;SDS011;4763;48.370;10.874;2023-03-01T00:31:06;19.80;;;11.43;;
9449;SDS011;4763;48.370;10.874;2023-03-01T00:33:55;20.47;;;11.50;;
9449;SDS011;4763;48.370;10.874;2023-03-01T00:36:43;20.67;;;13.10;;
9449;SDS011;4763;48.370;10.874;2023-03-01T00:39:30;19.70;;;12.07;;
9449;SDS011;4763;48.370;10.874;2023-03-01T00:42:18;17.47;;;11.13;;
9449;SDS011;4763;48.370;10.874;2023-03-01T00:45:07;22.33;;;12.27;;
9449;SDS011;4763;48.370;10.874;2023-03-01T00:47:55;21.73;;;11.53;;
9449;SDS011;4763;48.370;10.874;2023-03-01T00:50:42;19.87;;;12.37;;
9449;SDS011;4763;48.370;10.874;2023-03-01T00:53:29;21.73;;;12.83;;
9449;SDS011;4763;48.370;10.874;2023-03-01T00:56:16;23.30;;;13.03;;
9449;SDS011;4763;48.370;10.874;2023-03-01T00:59:03;20.67;;;11.63;;
9449;SDS011;4763;48.370;10.874;2023-03-01T01:01:51;21.07;;;12.60;;
9449;SDS011;4763;48.370;10.874;2023-03-01T01:04:38;20.30;;;11.70;;
9449;SDS011;4763;48.370;10.874;2023-03-01T01:07:25;19.63;;;11.87;;
9449;SDS011;4763;48.370;10.874;2023-03-01T01:10:13;16.70;;;11.53;;
9449;SDS011;4763;48.370;10.874;2023-03-01T01:13:02;18.40;;;11.70;;
9449;SDS011;4763;48.370;10.874;2023-03-01T01:15:49;22.03;;;12.40;;
9449;SDS011;4763;48.370;10.874;2023-03-01T01:18:37;22.67;;;11.67;;
9449;SDS011;4763;48.370;10.874;2023-03-01T01:21:25;24.23;;;12.23;;
9449;SDS011;4763;48.370;10.874;2023-03-01T01:24:12;17.27;;;11.23;;
9449;SDS011;4763;48.370;10.874;2023-03-01T01:26:59;20.90;;;12.80;;
9449;SDS011;4763;48.370;10.874;2023-03-01T01:29:46;17.17;;;11.63;;
9449;SDS011;4763;48.370;10.874;2023-03-01T01:32:33;20.30;;;11.63;;
9449;SDS011;4763;48.370;10.874;2023-03-01T01:35:22;22.43;;;12.40;;
9449;SDS011;4763;48.370;10.874;2023-03-01T01:38:09;19.83;;;11.97;;
9449;SDS011;4763;48.370;10.874;2023-03-01T01:40:56;18.77;;;11.77;;
9449;SDS011;4763;48.370;10.874;2023-03-01T01:43:44;20.10;;;11.60;;
9449;SDS011;4763;48.370;10.874;2023-03-01T01:46:32;18.00;;;11.93;;
9449;SDS011;4763;48.370;10.874;2023-03-01T01:49:24;23.53;;;12.23;;
9449;SDS011;4763;48.370;10.874;2023-03-01T01:52:16;21.63;;;13.27;;
9449;SDS011;4763;48.370;10.874;2023-03-01T01:55:10;20.00;;;11.43;;
9449;SDS011;4763;48.370;10.874;2023-03-01T01:58:02;22.20;;;13.43;;
9449;SDS011;4763;48.370;10.874;2023-03-01T02:00:51;20.00;;;12.97;;
9449;SDS011;4763;48.370;10.874;2023-03-01T02:03:39;20.87;;;11.70;;
9449;SDS011;4763;48.370;10.874;2023-03-01T02:06:29;17.20;;;11.70;;
9449;SDS011;4763;48.370;10.874;2023-03-01T02:09:21;22.53;;;11.70;;
9449;SDS011;4763;48.370;10.874;2023-03-01T02:12:09;18.03;;;11.87;;
9449;SDS011;4763;48.370;10.874;2023-03-01T02:14:56;20.13;;;12.17;;
9449;SDS011;4763;48.370;10.874;2023-03-01T02:17:43;22.03;;;12.50;;
9449;SDS011;4763;48.370;10.874;2023-03-01T02:20:33;21.17;;;12.73;;
9449;SDS011;4763;48.370;10.874;2023-03-01T02:23:24;24.90;;;12.57;;
9449;SDS011;4763;48.370;10.874;2023-03-01T02:26:14;21.63;;;12.93;;
9449;SDS011;4763;48.370;10.874;2023-03-01T02:29:08;21.73;;;12.33;;
9449;SDS011;4763;48.370;10.874;2023-03-01T02:31:56;21.23;;;13.77;;
9449;SDS011;4763;48.370;10.874;2023-03-01T02:34:46;22.30;;;12.93;;
9449;SDS011;4763;48.370;10.874;2023-03-01T02:37:33;21.83;;;12.97;;
9449;SDS011;4763;48.370;10.874;2023-03-01T02:40:22;20.30;;;12.17;;
9449;SDS011;4763;48.370;10.874;2023-03-01T02:43:10;20.00;;;12.77;;
9449;SDS011;4763;48.370;10.874;2023-03-01T02:46:04;18.40;;;12.50;;
9449;SDS011;4763;48.370;10.874;2023-03-01T02:48:53;20.90;;;12.03;;
9449;SDS011;4763;48.370;10.874;2023-03-01T02:51:45;18.60;;;12.17;;
9449;SDS011;4763;48.370;10.874;2023-03-01T02:54:41;19.70;;;11.27;;
9449;SDS011;4763;48.370;10.874;2023-03-01T02:57:34;20.53;;;12.87;;
9449;SDS011;4763;48.370;10.874;2023-03-01T03:00:23;22.37;;;13.57;;
9449;SDS011;4763;48.370;10.874;2023-03-01T03:03:19;19.10;;;12.67;;
9449;SDS011;4763;48.370;10.874;2023-03-01T03:06:07;19.27;;;12.37;;
9449;SDS011;4763;48.370;10.874;2023-03-01T03:08:55;21.07;;;14.00;;
9449;SDS011;4763;48.370;10.874;2023-03-01T03:11:43;23.53;;;13.23;;
9449;SDS011;4763;48.370;10.874;2023-03-01T03:14:30;21.47;;;13.03;;
9449;SDS011;4763;48.370;10.874;2023-03-01T03:17:20;19.73;;;12.80;;
9449;SDS011;4763;48.370;10.874;2023-03-01T03:20:09;24.17;;;13.90;;
9449;SDS011;4763;48.370;10.874;2023-03-01T03:23:04;25.53;;;12.90;;
9449;SDS011;4763;48.370;10.874;2023-03-01T03:25:51;20.70;;;13.07;;
9449;SDS011;4763;48.370;10.874;2023-03-01T03:28:38;23.10;;;13.20;;
9449;SDS011;4763;48.370;10.874;2023-03-01T03:31:26;19.97;;;11.30;;
9449;SDS011;4763;48.370;10.874;2023-03-01T03:34:13;24.53;;;13.17;;
9449;SDS011;4763;48.370;10.874;2023-03-01T03:37:04;23.00;;;13.03;;
9449;SDS011;4763;48.370;10.874;2023-03-01T03:40:11;24.47;;;13.73;;
9449;SDS011;4763;48.370;10.874;2023-03-01T03:43:00;24.67;;;13.03;;
9449;SDS011;4763;48.370;10.874;2023-03-01T03:45:48;23.17;;;12.37;;
9449;SDS011;4763;48.370;10.874;2023-03-01T03:48:37;22.97;;;13.17;;
9449;SDS011;4763;48.370;10.874;2023-03-01T03:51:25;22.70;;;13.10;;
9449;SDS011;4763;48.370;10.874;2023-03-01T03:54:13;21.73;;;12.60;;
9449;SDS011;4763;48.370;10.874;2023-03-01T03:57:00;27.37;;;11.03;;
9449;SDS011;4763;48.370;10.874;2023-03-01T03:59:47;22.57;;;13.30;;
9449;SDS011;4763;48.370;10.874;2023-03-01T04:02:34;22.50;;;13.07;;
9449;SDS011;4763;48.370;10.874;2023-03-01T04:05:22;21.13;;;13.00;;
9449;SDS011;4763;48.370;10.874;2023-03-01T04:08:09;23.63;;;12.70;;
9449;SDS011;4763;48.370;10.874;2023-03-01T04:10:59;20.73;;;12.77;;
9449;SDS011;4763;48.370;10.874;2023-03-01T04:14:08;23.37;;;13.30;;
9449;SDS011;4763;48.370;10.874;2023-03-01T04:16:56;20.63;;;12.67;;
9449;SDS011;4763;48.370;10.874;2023-03-01T04:19:43;22.30;;;13.20;;
9449;SDS011;4763;48.370;10.874;2023-03-01T04:22:33;22.63;;;13.10;;
9449;SDS011;4763;48.370;10.874;2023-03-01T04:25:21;20.77;;;13.40;;
9449;SDS011;4763;48.370;10.874;2023-03-01T04:28:09;22.43;;;12.80;;
9449;SDS011;4763;48.370;10.874;2023-03-01T04:30:57;22.30;;;12.70;;
9449;SDS011;4763;48.370;10.874;2023-03-01T04:33:46;20.13;;;12.07;;
9449;SDS011;4763;48.370;10.874;2023-03-01T04:36:34;21.10;;;12.97;;
9449;SDS011;4763;48.370;10.874;2023-03-01T04:39:21;20.90;;;12.80;;
9449;SDS011;4763;48.370;10.874;2023-03-01T04:42:08;23.20;;;12.90;;
9449;SDS011;4763;48.370;10.874;2023-03-01T04:44:57;23.73;;;13.27;;
9449;SDS011;4763;48.370;10.874;2023-03-01T04:47:54;19.00;;;12.37;;
9449;SDS011;4763;48.370;10.874;2023-03-01T04:54:24;21.17;;;12.83;;
9449;SDS011;4763;48.370;10.874;2023-03-01T04:57:11;21.03;;;13.13;;
9449;SDS011;4763;48.370;10.874;2023-03-01T05:00:02;20.87;;;12.33;;
9449;SDS011;4763;48.370;10.874;2023-03-01T05:03:05;22.60;;;12.87;;
9449;SDS011;4763;48.370;10.874;2023-03-01T05:05:54;21.37;;;12.30;;
9449;SDS011;4763;48.370;10.874;2023-03-01T05:08:51;22.97;;;13.57;;
9449;SDS011;4763;48.370;10.874;2023-03-01T05:11:38;25.27;;;13.80;;
9449;SDS011;4763;48.370;10.874;2023-03-01T05:14:25;18.97;;;13.10;;
9449;SDS011;4763;48.370;10.874;2023-03-01T05:17:14;24.17;;;14.03;;
9449;SDS011;4763;48.370;10.874;2023-03-01T05:20:01;21.57;;;12.43;;
9449;SDS011;4763;48.370;10.874;2023-03-01T05:22:52;20.80;;;12.67;;
9449;SDS011;4763;48.370;10.874;2023-03-01T05:25:45;22.43;;;14.00;;
9449;SDS011;4763;48.370;10.874;2023-03-01T05:28:33;20.77;;;12.83;;
9449;SDS011;4763;48.370;10.874;2023-03-01T05:31:20;23.30;;;13.70;;
9449;SDS011;4763;48.370;10.874;2023-03-01T05:34:08;25.97;;;13.43;;
9449;SDS011;4763;48.370;10.874;2023-03-01T05:36:58;19.87;;;12.47;;
9449;SDS011;4763;48.370;10.874;2023-03-01T05:39:45;22.20;;;14.37;;
9449;SDS011;4763;48.370;10.874;2023-03-01T05:42:32;24.63;;;13.47;;
9449;SDS011;4763;48.370;10.874;2023-03-01T05:45:19;25.20;;;13.80;;
9449;SDS011;4763;48.370;10.874;2023-03-01T05:48:08;22.77;;;13.30;;
9449;SDS011;4763;48.370;10.874;2023-03-01T05:50:59;18.17;;;12.37;;
9449;SDS011;4763;48.370;10.874;2023-03-01T05:53:46;20.00;;;11.93;;
9449;SDS011;4763;48.370;10.874;2023-03-01T05:56:33;22.87;;;13.87;;
9449;SDS011;4763;48.370;10.874;2023-03-01T05:59:20;23.70;;;13.97;;
9449;SDS011;4763;48.370;10.874;2023-03-01T06:08:59;20.97;;;12.97;;
9449;SDS011;4763;48.370;10.874;2023-03-01T08:00:17;23.93;;;14.50;;
9449;SDS011;4763;48.370;10.874;2023-03-01T08:03:07;24.03;;;14.47;;
9449;SDS011;4763;48.370;10.874;2023-03-01T08:05:55;24.33;;;14.57;;
9449;SDS011;4763;48.370;10.874;2023-03-01T08:08:51;24.10;;;13.20;;
9449;SDS011;4763;48.370;10.874;2023-03-01T08:11:40;21.53;;;13.27;;
9449;SDS011;4763;48.370;10.874;2023-03-01T08:14:29;25.20;;;13.87;;
9449;SDS011;4763;48.370;10.874;2023-03-01T08:17:17;23.17;;;13.00;;
9449;SDS011;4763;48.370;10.874;2023-03-01T08:20:06;25.20;;;13.97;;
9449;SDS011;4763;48.370;10.874;2023-03-01T08:22:57;25.80;;;14.77;;
9449;SDS011;4763;48.370;10.874;2023-03-01T08:25:54;24.60;;;13.80;;
9449;SDS011;4763;48.370;10.874;2023-03-01T08:28:41;22.57;;;13.23;;
9449;SDS011;4763;48.370;10.874;2023-03-01T08:34:42;25.37;;;14.17;;
9449;SDS011;4763;48.370;10.874;2023-03-01T08:37:40;23.57;;;13.93;;
9449;SDS011;4763;48.370;10.874;2023-03-01T08:40:27;22.13;;;13.00;;
9449;SDS011;4763;48.370;10.874;2023-03-01T08:43:14;23.80;;;13.00;;
9449;SDS011;4763;48.370;10.874;2023-03-01T08:46:03;24.17;;;13.70;;
9449;SDS011;4763;48.370;10.874;2023-03-01T08:48:50;28.77;;;13.97;;
9449;SDS011;4763;48.370;10.874;2023-03-01T09:05:28;26.20;;;14.00;;
9449;SDS011;4763;48.370;10.874;2023-03-01T09:08:21;23.70;;;13.60;;
9449;SDS011;4763;48.370;10.874;2023-03-01T09:11:18;25.77;;;13.97;;
9449;SDS011;4763;48.370;10.874;2023-03-01T09:14:09;25.67;;;14.07;;
9449;SDS011;4763;48.370;10.874;2023-03-01T09:17:03;22.47;;;12.60;;
9449;SDS011;4763;48.370;10.874;2023-03-01T09:29:56;19.53;;;11.87;;
9449;SDS011;4763;48.370;10.874;2023-03-01T09:32:50;21.63;;;13.73;;
9449;SDS011;4763;48.370;10.874;2023-03-01T09:35:39;22.07;;;12.40;;
9449;SDS011;4763;48.370;10.874;2023-03-01T09:38:31;24.83;;;13.63;;
9449;SDS011;4763;48.370;10.874;2023-03-01T09:41:34;21.23;;;11.90;;
9449;SDS011;4763;48.370;10.874;2023-03-01T09:44:39;19.70;;;12.30;;
9449;SDS011;4763;48.370;10.874;2023-03-01T09:47:40;19.33;;;11.43;;
9449;SDS011;4763;48.370;10.874;2023-03-01T09:50:32;24.70;;;12.73;;
9449;SDS011;4763;48.370;10.874;2023-03-01T09:53:56;22.03;;;13.73;;
9449;SDS011;4763;48.370;10.874;2023-03-01T10:04:41;24.67;;;14.10;;
9449;SDS011;4763;48.370;10.874;2023-03-01T10:07:36;21.20;;;13.43;;
9449;SDS011;4763;48.370;10.874;2023-03-01T10:10:33;20.93;;;12.73;;
9449;SDS011;4763;48.370;10.874;2023-03-01T10:13:23;24.40;;;13.60;;
9449;SDS011;4763;48.370;10.874;2023-03-01T10:16:15;46.60;;;25.90;;
9449;SDS011;4763;48.370;10.874;2023-03-01T10:19:06;21.93;;;13.87;;
9449;SDS011;4763;48.370;10.874;2023-03-01T10:22:03;25.10;;;14.37;;
9449;SDS011;4763;48.370;10.874;2023-03-01T10:24:56;22.10;;;12.80;;
9449;SDS011;4763;48.370;10.874;2023-03-01T10:27:51;24.30;;;13.40;;
9449;SDS011;4763;48.370;10.874;2023-03-01T10:30:40;23.03;;;14.07;;
9449;SDS011;4763;48.370;10.874;2023-03-01T10:33:29;21.63;;;12.90;;
9449;SDS011;4763;48.370;10.874;2023-03-01T10:36:18;18.53;;;12.23;;
9449;SDS011;4763;48.370;10.874;2023-03-01T10:39:11;19.37;;;12.20;;
9449;SDS011;4763;48.370;10.874;2023-03-01T10:42:01;21.10;;;13.27;;
9449;SDS011;4763;48.370;10.874;2023-03-01T10:44:49;23.63;;;13.53;;
9449;SDS011;4763;48.370;10.874;2023-03-01T10:47:36;23.50;;;12.57;;
9449;SDS011;4763;48.370;10.874;2023-03-01T10:50:23;23.17;;;12.73;;
9449;SDS011;4763;48.370;10.874;2023-03-01T10:53:20;21.60;;;12.30;;
9449;SDS011;4763;48.370;10.874;2023-03-01T10:56:13;24.40;;;12.93;;
9449;SDS011;4763;48.370;10.874;2023-03-01T10:59:03;20.30;;;12.70;;
9449;SDS011;4763;48.370;10.874;2023-03-01T11:02:01;23.30;;;13.67;;
9449;SDS011;4763;48.370;10.874;2023-03-01T11:04:57;22.77;;;12.83;;
9449;SDS011;4763;48.370;10.874;2023-03-01T11:07:49;20.17;;;12.13;;
9449;SDS011;4763;48.370;10.874;2023-03-01T11:10:38;23.27;;;11.97;;
9449;SDS011;4763;48.370;10.874;2023-03-01T11:13:26;21.17;;;12.33;;
9449;SDS011;4763;48.370;10.874;2023-03-01T11:16:13;24.60;;;13.60;;
9449;SDS011;4763;48.370;10.874;2023-03-01T11:19:13;19.90;;;12.70;;
9449;SDS011;4763;48.370;10.874;2023-03-01T11:22:03;21.67;;;14.00;;
9449;SDS011;4763;48.370;10.874;2023-03-01T11:24:54;22.67;;;13.30;;
9449;SDS011;4763;48.370;10.874;2023-03-01T11:27:44;25.07;;;14.40;;
9449;SDS011;4763;48.370;10.874;2023-03-01T11:30:34;23.87;;;12.73;;
9449;SDS011;4763;48.370;10.874;2023-03-01T11:33:30;22.77;;;12.43;;
9449;SDS011;4763;48.370;10.874;2023-03-01T11:36:25;21.20;;;12.43;;
9449;SDS011;4763;48.370;10.874;2023-03-01T11:39:20;18.23;;;11.70;;
9449;SDS011;4763;48.370;10.874;2023-03-01T11:42:15;21.00;;;13.10;;
9449;SDS011;4763;48.370;10.874;2023-03-01T11:45:08;20.07;;;12.83;;
9449;SDS011;4763;48.370;10.874;2023-03-01T11:48:05;20.40;;;12.57;;
9449;SDS011;4763;48.370;10.874;2023-03-01T11:51:07;22.07;;;13.60;;
9449;SDS011;4763;48.370;10.874;2023-03-01T11:54:02;19.20;;;12.27;;
9449;SDS011;4763;48.370;10.874;2023-03-01T11:56:57;24.20;;;13.87;;
9449;SDS011;4763;48.370;10.874;2023-03-01T11:59:53;21.93;;;12.87;;
9449;SDS011;4763;48.370;10.874;2023-03-01T12:06:28;23.53;;;14.63;;
9449;SDS011;4763;48.370;10.874;2023-03-01T12:09:39;17.13;;;11.80;;
9449;SDS011;4763;48.370;10.874;2023-03-01T12:12:37;19.87;;;12.07;;
9449;SDS011;4763;48.370;10.874;2023-03-01T12:15:51;22.77;;;13.37;;
9449;SDS011;4763;48.370;10.874;2023-03-01T12:19:08;16.20;;;11.70;;
9449;SDS011;4763;48.370;10.874;2023-03-01T12:22:12;18.27;;;10.87;;
9449;SDS011;4763;48.370;10.874;2023-03-01T12:28:24;18.83;;;12.20;;
9449;SDS011;4763;48.370;10.874;2023-03-01T12:34:56;16.43;;;12.27;;
9449;SDS011;4763;48.370;10.874;2023-03-01T12:37:55;16.83;;;10.57;;
9449;SDS011;4763;48.370;10.874;2023-03-01T12:40:50;18.83;;;11.30;;
9449;SDS011;4763;48.370;10.874;2023-03-01T12:43:51;19.17;;;11.17;;
9449;SDS011;4763;48.370;10.874;2023-03-01T12:46:50;18.80;;;11.77;;
9449;SDS011;4763;48.370;10.874;2023-03-01T12:49:47;18.20;;;11.27;;
9449;SDS011;4763;48.370;10.874;2023-03-01T12:52:38;17.73;;;10.70;;
9449;SDS011;4763;48.370;10.874;2023-03-01T12:55:31;16.53;;;10.73;;
9449;SDS011;4763;48.370;10.874;2023-03-01T12:58:24;19.10;;;11.90;;
9449;SDS011;4763;48.370;10.874;2023-03-01T13:01:16;17.20;;;11.00;;
9449;SDS011;4763;48.370;10.874;2023-03-01T13:04:14;19.97;;;11.40;;
9449;SDS011;4763;48.370;10.874;2023-03-01T13:07:16;15.50;;;10.50;;
9449;SDS011;4763;48.370;10.874;2023-03-01T13:10:16;17.73;;;11.43;;
9449;SDS011;4763;48.370;10.874;2023-03-01T13:13:14;15.53;;;10.30;;
9449;SDS011;4763;48.370;10.874;2023-03-01T13:16:19;18.37;;;11.30;;
9449;SDS011;4763;48.370;10.874;2023-03-01T13:19:10;22.33;;;10.97;;
9449;SDS011;4763;48.370;10.874;2023-03-01T13:22:01;14.53;;;10.07;;
9449;SDS011;4763;48.370;10.874;2023-03-01T13:25:18;17.70;;;10.80;;
9449;SDS011;4763;48.370;10.874;2023-03-01T13:34:53;20.00;;;11.67;;
9449;SDS011;4763;48.370;10.874;2023-03-01T13:37:45;18.13;;;11.07;;
9449;SDS011;4763;48.370;10.874;2023-03-01T13:43:47;16.47;;;10.43;;
9449;SDS011;4763;48.370;10.874;2023-03-01T13:46:34;14.87;;;9.60;;
9449;SDS011;4763;48.370;10.874;2023-03-01T13:49:23;15.37;;;9.80;;
9449;SDS011;4763;48.370;10.874;2023-03-01T13:52:25;15.57;;;9.57;;
9449;SDS011;4763;48.370;10.874;2023-03-01T13:55:21;15.90;;;10.37;;
9449;SDS011;4763;48.370;10.874;2023-03-01T13:58:15;20.17;;;11.10;;
9449;SDS011;4763;48.370;10.874;2023-03-01T14:01:20;17.17;;;9.77;;
9449;SDS011;4763;48.370;10.874;2023-03-01T14:04:20;16.83;;;9.73;;
9449;SDS011;4763;48.370;10.874;2023-03-01T14:07:09;14.10;;;9.03;;
9449;SDS011;4763;48.370;10.874;2023-03-01T14:09:58;16.40;;;11.00;;
9449;SDS011;4763;48.370;10.874;2023-03-01T14:12:48;14.47;;;9.07;;
9449;SDS011;4763;48.370;10.874;2023-03-01T14:15:42;15.17;;;8.93;;
9449;SDS011;4763;48.370;10.874;2023-03-01T14:18:38;18.63;;;10.13;;
9449;SDS011;4763;48.370;10.874;2023-03-01T14:21:32;16.10;;;10.40;;
9449;SDS011;4763;48.370;10.874;2023-03-01T14:24:21;16.17;;;9.17;;
9449;SDS011;4763;48.370;10.874;2023-03-01T14:27:10;17.17;;;11.70;;
9449;SDS011;4763;48.370;10.874;2023-03-01T14:29:59;15.00;;;10.33;;
9449;SDS011;4763;48.370;10.874;2023-03-01T14:32:51;13.97;;;8.57;;
9449;SDS011;4763;48.370;10.874;2023-03-01T14:35:41;15.23;;;9.37;;
9449;SDS011;4763;48.370;10.874;2023-03-01T14:38:29;16.30;;;10.07;;
9449;SDS011;4763;48.370;10.874;2023-03-01T14:41:21;13.90;;;9.37;;
9449;SDS011;4763;48.370;10.874;2023-03-01T14:44:12;17.30;;;10.10;;
9449;SDS011;4763;48.370;10.874;2023-03-01T14:47:03;15.80;;;10.40;;
9449;SDS011;4763;48.370;10.874;2023-03-01T14:49:52;13.90;;;8.80;;
9449;SDS011;4763;48.370;10.874;2023-03-01T14:52:45;15.97;;;10.13;;
9449;SDS011;4763;48.370;10.874;2023-03-01T14:55:35;16.13;;;10.73;;
9449;SDS011;4763;48.370;10.874;2023-03-01T14:58:26;14.87;;;9.00;;
9449;SDS011;4763;48.370;10.874;2023-03-01T15:01:13;14.87;;;10.07;;
9449;SDS011;4763;48.370;10.874;2023-03-01T15:04:03;14.70;;;9.90;;
9449;SDS011;4763;48.370;10.874;2023-03-01T15:06:51;16.77;;;9.53;;
9449;SDS011;4763;48.370;10.874;2023-03-01T15:09:40;14.67;;;9.47;;
9449;SDS011;4763;48.370;10.874;2023-03-01T15:12:35;17.37;;;9.63;;
9449;SDS011;4763;48.370;10.874;2023-03-01T15:15:32;16.77;;;10.30;;
9449;SDS011;4763;48.370;10.874;2023-03-01T15:18:21;15.17;;;8.63;;
9449;SDS011;4763;48.370;10.874;2023-03-01T15:21:16;15.07;;;9.20;;
9449;SDS011;4763;48.370;10.874;2023-03-01T15:24:05;17.77;;;9.67;;
9449;SDS011;4763;48.370;10.874;2023-03-01T15:27:14;14.23;;;9.40;;
9449;SDS011;4763;48.370;10.874;2023-03-01T15:30:04;15.77;;;9.73;;
9449;SDS011;4763;48.370;10.874;2023-03-01T15:39:33;15.30;;;9.13;;
9449;SDS011;4763;48.370;10.874;2023-03-01T15:42:36;16.43;;;9.70;;
9449;SDS011;4763;48.370;10.874;2023-03-01T15:45:25;17.27;;;9.97;;
9449;SDS011;4763;48.370;10.874;2023-03-01T15:48:14;15.27;;;9.70;;
9449;SDS011;4763;48.370;10.874;2023-03-01T15:51:09;14.17;;;8.77;;
9449;SDS011;4763;48.370;10.874;2023-03-01T15:54:01;14.47;;;9.20;;
9449;SDS011;4763;48.370;10.874;2023-03-01T15:56:51;16.00;;;9.23;;
9449;SDS011;4763;48.370;10.874;2023-03-01T15:59:39;15.73;;;9.90;;
9449;SDS011;4763;48.370;10.874;2023-03-01T16:02:27;17.57;;;9.60;;
9449;SDS011;4763;48.370;10.874;2023-03-01T16:05:17;17.20;;;9.53;;
9449;SDS011;4763;48.370;10.874;2023-03-01T16:08:06;16.57;;;9.53;;
9449;SDS011;4763;48.370;10.874;2023-03-01T16:10:53;15.97;;;10.37;;
9449;SDS011;4763;48.370;10.874;2023-03-01T16:13:40;16.27;;;10.13;;
9449;SDS011;4763;48.370;10.874;2023-03-01T16:16:29;17.83;;;10.47;;
9449;SDS011;4763;48.370;10.874;2023-03-01T16:19:16;18.83;;;10.03;;
9449;SDS011;4763;48.370;10.874;2023-03-01T16:22:03;26.80;;;14.67;;
9449;SDS011;4763;48.370;10.874;2023-03-01T16:24:50;23.80;;;13.30;;
9449;SDS011;4763;48.370;10.874;2023-03-01T16:27:37;19.13;;;9.70;;
9449;SDS011;4763;48.370;10.874;2023-03-01T16:30:24;23.43;;;13.73;;
9449;SDS011;4763;48.370;10.874;2023-03-01T16:33:13;20.87;;;10.87;;
9449;SDS011;4763;48.370;10.874;2023-03-01T16:36:00;16.87;;;9.97;;
9449;SDS011;4763;48.370;10.874;2023-03-01T16:38:52;16.27;;;10.27;;
9449;SDS011;4763;48.370;10.874;2023-03-01T16:41:39;15.50;;;9.60;;
9449;SDS011;4763;48.370;10.874;2023-03-01T16:44:26;16.83;;;10.33;;
9449;SDS011;4763;48.370;10.874;2023-03-01T16:47:13;16.27;;;9.60;;
9449;SDS011;4763;48.370;10.874;2023-03-01T16:50:02;16.87;;;9.97;;
9449;SDS011;4763;48.370;10.874;2023-03-01T16:52:50;15.67;;;10.40;;
9449;SDS011;4763;48.370;10.874;2023-03-01T16:55:37;16.27;;;9.37;;
9449;SDS011;4763;48.370;10.874;2023-03-01T16:58:30;19.40;;;10.23;;
9449;SDS011;4763;48.370;10.874;2023-03-01T17:01:18;19.37;;;9.73;;
9449;SDS011;4763;48.370;10.874;2023-03-01T17:04:09;19.23;;;10.40;;
9449;SDS011;4763;48.370;10.874;2023-03-01T17:06:59;17.87;;;11.63;;
9449;SDS011;4763;48.370;10.874;2023-03-01T17:09:46;21.60;;;13.10;;
9449;SDS011;4763;48.370;10.874;2023-03-01T17:12:33;18.13;;;10.68;;
9449;SDS011;4763;48.370;10.874;2023-03-01T17:15:20;16.93;;;10.47;;
9449;SDS011;4763;48.370;10.874;2023-03-01T17:18:08;18.70;;;10.90;;
9449;SDS011;4763;48.370;10.874;2023-03-01T17:20:55;19.30;;;11.37;;
9449;SDS011;4763;48.370;10.874;2023-03-01T17:23:46;22.10;;;12.23;;
9449;SDS011;4763;48.370;10.874;2023-03-01T17:26:34;26.13;;;14.13;;
9449;SDS011;4763;48.370;10.874;2023-03-01T17:29:21;20.07;;;11.80;;
9449;SDS011;4763;48.370;10.874;2023-03-01T17:32:08;30.77;;;17.73;;
9449;SDS011;4763;48.370;10.874;2023-03-01T17:34:56;22.43;;;13.03;;
9449;SDS011;4763;48.370;10.874;2023-03-01T17:37:43;28.10;;;14.53;;
9449;SDS011;4763;48.370;10.874;2023-03-01T17:40:32;41.60;;;21.47;;
9449;SDS011;4763;48.370;10.874;2023-03-01T17:43:20;46.43;;;24.77;;
9449;SDS011;4763;48.370;10.874;2023-03-01T17:46:07;22.93;;;14.17;;
9449;SDS011;4763;48.370;10.874;2023-03-01T17:48:54;18.27;;;11.27;;
9449;SDS011;4763;48.370;10.874;2023-03-01T17:51:41;25.97;;;12.70;;
9449;SDS011;4763;48.370;10.874;2023-03-01T17:54:29;19.50;;;11.43;;
9449;SDS011;4763;48.370;10.874;2023-03-01T17:57:19;20.90;;;12.33;;
9449;SDS011;4763;48.370;10.874;2023-03-01T18:00:06;24.27;;;13.03;;
9449;SDS011;4763;48.370;10.874;2023-03-01T18:02:57;20.57;;;12.07;;
9449;SDS011;4763;48.370;10.874;2023-03-01T18:05:44;21.50;;;13.20;;
9449;SDS011;4763;48.370;10.874;2023-03-01T18:08:36;21.97;;;12.43;;
9449;SDS011;4763;48.370;10.874;2023-03-01T18:11:36;24.57;;;14.40;;
9449;SDS011;4763;48.370;10.874;2023-03-01T18:14:37;19.90;;;12.53;;
9449;SDS011;4763;48.370;10.874;2023-03-01T18:17:38;21.93;;;11.70;;
9449;SDS011;4763;48.370;10.874;2023-03-01T18:20:31;19.40;;;11.93;;
9449;SDS011;4763;48.370;10.874;2023-03-01T18:23:18;22.57;;;13.50;;
9449;SDS011;4763;48.370;10.874;2023-03-01T18:26:07;23.70;;;13.13;;
9449;SDS011;4763;48.370;10.874;2023-03-01T18:28:56;21.40;;;13.37;;
9449;SDS011;4763;48.370;10.874;2023-03-01T18:31:46;27.33;;;15.43;;
9449;SDS011;4763;48.370;10.874;2023-03-01T18:34:33;25.37;;;13.87;;
9449;SDS011;4763;48.370;10.874;2023-03-01T18:37:20;24.63;;;13.60;;
9449;SDS011;4763;48.370;10.874;2023-03-01T18:40:08;25.67;;;14.23;;
9449;SDS011;4763;48.370;10.874;2023-03-01T18:42:57;27.43;;;14.57;;
9449;SDS011;4763;48.370;10.874;2023-03-01T18:45:44;28.80;;;14.63;;
9449;SDS011;4763;48.370;10.874;2023-03-01T18:48:32;25.03;;;14.60;;
9449;SDS011;4763;48.370;10.874;2023-03-01T18:51:21;21.40;;;14.33;;
9449;SDS011;4763;48.370;10.874;2023-03-01T18:54:10;26.60;;;14.33;;
9449;SDS011;4763;48.370;10.874;2023-03-01T18:56:57;25.37;;;14.23;;
9449;SDS011;4763;48.370;10.874;2023-03-01T18:59:44;23.40;;;14.50;;
9449;SDS011;4763;48.370;10.874;2023-03-01T19:02:31;27.60;;;15.77;;
9449;SDS011;4763;48.370;10.874;2023-03-01T19:05:20;25.47;;;14.20;;
9449;SDS011;4763;48.370;10.874;2023-03-01T19:08:07;22.93;;;13.37;;
9449;SDS011;4763;48.370;10.874;2023-03-01T19:10:55;25.50;;;13.97;;
9449;SDS011;4763;48.370;10.874;2023-03-01T19:13:42;22.87;;;14.20;;
9449;SDS011;4763;48.370;10.874;2023-03-01T19:16:31;27.13;;;14.20;;
9449;SDS011;4763;48.370;10.874;2023-03-01T19:19:20;28.40;;;14.77;;
9449;SDS011;4763;48.370;10.874;2023-03-01T19:22:08;25.37;;;14.37;;
9449;SDS011;4763;48.370;10.874;2023-03-01T19:24:55;24.53;;;14.17;;
9449;SDS011;4763;48.370;10.874;2023-03-01T19:27:42;29.27;;;15.90;;
9449;SDS011;4763;48.370;10.874;2023-03-01T19:30:29;24.57;;;14.13;;
9449;SDS011;4763;48.370;10.874;2023-03-01T19:33:16;27.17;;;15.43;;
9449;SDS011;4763;48.370;10.874;2023-03-01T19:36:04;24.77;;;14.13;;
9449;SDS011;4763;48.370;10.874;2023-03-01T19:38:53;29.83;;;16.20;;
9449;SDS011;4763;48.370;10.874;2023-03-01T19:41:41;25.00;;;15.07;;
9449;SDS011;4763;48.370;10.874;2023-03-01T19:44:28;30.17;;;16.13;;
9449;SDS011;4763;48.370;10.874;2023-03-01T19:47:15;25.70;;;14.57;;
9449;SDS011;4763;48.370;10.874;2023-03-01T19:50:03;33.50;;;14.83;;
9449;SDS011;4763;48.370;10.874;2023-03-01T19:52:51;28.30;;;14.53;;
9449;SDS011;4763;48.370;10.874;2023-03-01T19:55:39;23.87;;;14.03;;